メインページ
METAR-TAF:

METAR-TAF

空港 :

エル・アルト国際空港

ラパス, ボリビア

緯度: 16-31S, 経度: 068-11W, 海抜: 4058m

現時点の気象観測

当レポートは31分前の06:00(UTC)に作成
変向風 2kt
気温
気圧 1037 hPa
視程: 4000m
高度400ftの雲はほとんどない
高度20000ftの千切れ雲あり
近辺で霧

METAR: SLLP 210600Z VRB02KT 4000E VCFG FEW004 BKN200 08/05Q1037

時間: 02:31 (06:31 UTC)

予報

当レポートは1時間41分前の04:50(UTC)に作成
予報は21日の 06時(UTC)から 22日の 06時(UTC)まで有効
東/北東の風 6kt
視程10km以上
高度1500ftの雲はほとんどない
高度7000ftの雲は散在している
21日の 07時(UTC)から 21日の 11時(UTC)まで一時的に
視程: 3000m
高度1000ftの千切れ雲あり
近辺で霧
21日の 15時(UTC)から 21日の 17時(UTC)まで徐々に
南東の風 10kt
21日の 20時(UTC)から 21日の 23時(UTC)まで一時的に
南西の風 10kt
視程: 5000m
高度2000ftの雲は散在している
高度2300ftの雲はほとんどない, 積乱雲.
高度7000ftの雲は散在している

TAF: SLLP 210450Z 2106/2206 06006KT 9999 FEW015 SCT070 TX20/2120Z TN03 /2110Z TEMPO 2107/2111 3000E VCFG BKN010 BECMG 2115/2117 13010KT TEMPO 2120/2123 22010KT 5000 VCTSSH SCT020 FEW023CB SCT070

4,000以上の空港の気象観測と天気予報(METAR報とTAF報)

利用可能な観測所は地図上に黄色い丸と赤い丸で示す。

丸の上にカーソルを重ねると観測所名を参照できる。

次にクリックすると気象観測と天気予報を参照できる。

マップの切り替え:黒色「×」印の緑ボタンをクリックして拡大、「-」印の緑ボタンをクリックして縮小、緑色の三角印をクリックして隣りの地図に切り替え


METAR-TAF: